ヨハネスブルグ の空港の天気 - METARとTAF

ヨハネスブルグ/O.R.タンボ国際空港 ( FAOR / JNB ) - 南アフリカ ヨハネスブルグ
飛行場実況気象(Metar)
観測時間02/21 03:00 SAST (02/21 01:00 UTC)
風向・風速西南西 2m/s
視程10km以上
天気現象
なし
気温21℃
湿度53%
気圧1023hPa
METARFAOR 210100Z 25004KT CAVOK 21/11 Q1023 NOSIG
過去の天気等 Google飛行場航空写真 Wunderground天気予報

過去48時間のMETAR

飛行場予報(TAF)
発表時間: 2/21 00:00 SAST (2/20 22:00 UTC)
予報対象時間: 21日2時 SAST ~ 22日8時 SAST
風向・風速不定 2m/s
視程10km以上
なし
21日13時 SAST ~ 21日15時 SAST に 確率 40% で一時的に
少しの塔状積雲 雲底高度 1220m
21日15時 SAST ~ 22日2時 SAST に 確率 30% で一時的に
天気現象弱い雷雨
少しの積乱雲 雲底高度 1220m
21日18時 SAST ~ 21日20時 SAST に徐々に
風向・風速北北西 3m/s
21日22時 SAST ~ 21日24時 SAST に徐々に
風向・風速北北東 5m/s
TAF FAOR 202200Z 2100/2206 VRB03KT CAVOK TX30/2113Z TN17/2203Z
PROB40 TEMPO 2111/2113 FEW040TCU
PROB30 TEMPO 2113/2124 -TSRA FEW040CB
BECMG 2116/2118 33006KT
BECMG 2120/2122 03010KT